createdAt,value
2019-03-11T00:02:14.158Z,44.90
2019-03-11T00:05:06.102Z,44.70
2019-03-11T00:07:57.903Z,44.70
2019-03-11T00:10:49.916Z,44.50
2019-03-11T00:13:41.880Z,44.20
2019-03-11T00:16:33.992Z,44.60
2019-03-11T00:19:26.003Z,44.80
2019-03-11T00:22:17.687Z,44.50
2019-03-11T00:25:09.816Z,44.10
2019-03-11T00:28:01.890Z,44.30
2019-03-11T00:30:54.046Z,44.20
2019-03-11T00:33:46.177Z,44.30
2019-03-11T00:36:38.356Z,44.50
2019-03-11T00:39:30.586Z,44.10
2019-03-11T00:42:22.501Z,44.70
2019-03-11T00:45:14.725Z,44.10
2019-03-11T00:48:06.975Z,44.50
2019-03-11T00:50:59.166Z,44.90
2019-03-11T00:53:51.329Z,44.90
2019-03-11T00:56:43.702Z,44.80
2019-03-11T00:59:35.798Z,44.90
2019-03-11T01:02:28.287Z,44.50
2019-03-11T01:05:20.451Z,44.10
2019-03-11T01:08:12.723Z,44.60
2019-03-11T01:11:04.760Z,44.70
2019-03-11T01:13:56.752Z,43.40
2019-03-11T01:16:49.515Z,44.60
2019-03-11T01:19:41.906Z,44.90
2019-03-11T01:22:33.695Z,45.00
2019-03-11T01:25:25.539Z,44.90
2019-03-11T01:28:17.367Z,44.60
2019-03-11T01:31:09.425Z,45.00
2019-03-11T01:34:01.809Z,45.10
2019-03-11T01:36:53.817Z,45.00
2019-03-11T01:39:46.112Z,45.10
2019-03-11T01:42:39.012Z,44.80
2019-03-11T01:45:30.882Z,45.00
2019-03-11T01:48:23.262Z,45.00
2019-03-11T01:51:15.604Z,45.20
2019-03-11T01:54:07.640Z,45.70
2019-03-11T01:56:59.862Z,45.10
2019-03-11T01:59:52.297Z,44.90
2019-03-11T02:02:44.379Z,45.00
2019-03-11T02:05:36.457Z,44.60
2019-03-11T02:08:28.466Z,45.00
2019-03-11T02:11:20.863Z,45.00
2019-03-11T02:14:13.004Z,45.20
2019-03-11T02:17:06.295Z,45.30
2019-03-11T02:19:58.238Z,45.20
2019-03-11T02:22:50.506Z,45.10
2019-03-11T02:25:42.581Z,45.10
2019-03-11T02:28:35.163Z,45.20
2019-03-11T02:31:27.397Z,45.40
2019-03-11T02:34:19.751Z,45.10
2019-03-11T02:37:12.454Z,45.10
2019-03-11T02:40:04.819Z,45.00
2019-03-11T02:42:56.917Z,45.30
2019-03-11T02:45:49.546Z,45.20
2019-03-11T02:48:41.757Z,45.30
2019-03-11T02:51:34.011Z,45.30
2019-03-11T02:54:26.465Z,45.10
2019-03-11T02:57:18.561Z,45.60
2019-03-11T03:00:11.117Z,45.30
2019-03-11T03:03:13.127Z,45.30
2019-03-11T03:06:11.570Z,45.40
2019-03-11T03:09:03.618Z,45.20
2019-03-11T03:11:57.262Z,45.30
2019-03-11T03:14:49.163Z,45.80
2019-03-11T03:17:41.009Z,45.50
2019-03-11T03:20:33.171Z,45.20
2019-03-11T03:23:25.040Z,45.40
2019-03-11T03:26:17.395Z,45.20
2019-03-11T03:29:09.470Z,45.40
2019-03-11T03:32:01.349Z,45.10
2019-03-11T03:34:53.609Z,44.70
2019-03-11T03:37:45.492Z,45.20
2019-03-11T03:40:37.315Z,45.40
2019-03-11T03:43:29.165Z,45.80
2019-03-11T03:46:45.734Z,45.90
2019-03-11T03:49:41.605Z,45.80
2019-03-11T03:52:38.339Z,45.50
2019-03-11T03:56:11.591Z,45.40
2019-03-11T04:02:51.067Z,46.00
2019-03-11T04:05:44.863Z,46.10
2019-03-11T04:08:37.213Z,46.00
2019-03-11T04:11:29.573Z,45.90
2019-03-11T04:14:28.789Z,46.10
2019-03-11T04:17:21.670Z,46.10
2019-03-11T04:20:18.523Z,45.50
2019-03-11T04:23:11.035Z,45.10
2019-03-11T04:26:11.781Z,45.20
2019-03-11T04:29:06.739Z,45.40
2019-03-11T04:32:09.793Z,45.30
2019-03-11T04:35:02.449Z,45.30
2019-03-11T04:38:21.551Z,45.20
2019-03-11T04:41:16.470Z,45.30
2019-03-11T04:44:12.676Z,45.40
2019-03-11T04:47:07.542Z,45.10
2019-03-11T04:50:20.405Z,45.10
2019-03-11T04:53:12.976Z,45.00
2019-03-11T04:56:05.037Z,45.10
2019-03-11T04:59:06.173Z,45.30
2019-03-11T05:02:12.696Z,45.80
2019-03-11T05:05:08.407Z,45.70
2019-03-11T05:08:13.757Z,46.30
2019-03-11T05:11:19.046Z,46.80
2019-03-11T05:14:18.199Z,46.60
2019-03-11T05:17:16.122Z,46.40
2019-03-11T05:20:10.811Z,46.70
2019-03-11T05:23:55.692Z,46.90
2019-03-11T05:27:09.311Z,47.00
2019-03-11T05:30:12.812Z,47.70
2019-03-11T05:33:12.283Z,47.80
2019-03-11T05:36:11.191Z,49.10
2019-03-11T05:39:18.763Z,49.80
2019-03-11T05:42:12.777Z,47.60
2019-03-11T05:45:04.971Z,45.90
2019-03-11T05:48:01.727Z,45.40
2019-03-11T05:50:58.476Z,45.40
2019-03-11T05:54:10.169Z,44.90
2019-03-11T05:57:19.015Z,44.50
2019-03-11T06:03:39.759Z,43.90
2019-03-11T06:10:00.754Z,43.30
2019-03-11T06:13:01.096Z,42.90
2019-03-11T06:15:54.582Z,43.10
2019-03-11T06:18:54.261Z,44.10
2019-03-11T06:22:12.009Z,47.00
2019-03-11T06:25:10.904Z,45.50
2019-03-11T06:28:04.732Z,44.70
2019-03-11T06:31:05.225Z,44.60
2019-03-11T06:34:01.945Z,43.90
2019-03-11T06:37:03.715Z,43.30
2019-03-11T06:39:59.803Z,44.50
2019-03-11T06:42:57.974Z,45.20
2019-03-11T06:45:56.533Z,44.70
2019-03-11T06:52:03.784Z,45.40
2019-03-11T06:54:56.735Z,46.00
2019-03-11T06:57:48.904Z,46.20
2019-03-11T07:00:44.921Z,47.80
2019-03-11T07:03:40.405Z,46.90
2019-03-11T07:06:43.465Z,48.20
2019-03-11T07:09:35.769Z,48.40
2019-03-11T07:12:32.590Z,47.80
2019-03-11T07:15:32.750Z,46.50
2019-03-11T07:18:45.721Z,45.90
2019-03-11T07:22:51.307Z,45.50
2019-03-11T07:28:18.199Z,44.80
2019-03-11T07:35:08.810Z,44.30
2019-03-11T07:37:54.188Z,44.00
2019-03-11T07:44:35.608Z,44.00
2019-03-11T07:47:39.544Z,44.00
2019-03-11T07:57:13.248Z,43.70
2019-03-11T08:00:20.776Z,43.60
2019-03-11T08:03:20.533Z,43.40
2019-03-11T08:06:20.865Z,44.10
2019-03-11T08:09:37.018Z,43.70
2019-03-11T08:12:56.827Z,43.40
2019-03-11T08:15:55.181Z,44.70
2019-03-11T08:19:02.657Z,43.80
2019-03-11T08:22:01.937Z,43.90
2019-03-11T08:24:59.032Z,44.90
2019-03-11T08:27:52.900Z,44.80
2019-03-11T08:30:53.930Z,45.10
2019-03-11T08:33:49.877Z,45.80
2019-03-11T08:36:44.886Z,45.40
2019-03-11T08:39:50.463Z,45.50
2019-03-11T08:42:46.534Z,45.70
2019-03-11T08:46:26.308Z,45.60
2019-03-11T08:49:28.672Z,45.60
2019-03-11T08:52:23.929Z,45.70
2019-03-11T08:55:16.828Z,45.70
2019-03-11T08:58:17.575Z,46.20
2019-03-11T09:01:12.773Z,45.90
2019-03-11T09:04:15.777Z,45.40
2019-03-11T09:07:30.838Z,45.30
2019-03-11T09:10:34.531Z,45.00
2019-03-11T09:13:30.651Z,44.70
2019-03-11T09:16:32.068Z,44.50
2019-03-11T09:19:38.707Z,44.40
2019-03-11T09:22:33.324Z,44.20
2019-03-11T09:25:41.793Z,44.20
2019-03-11T09:28:45.751Z,46.10
2019-03-11T09:31:41.070Z,47.00
2019-03-11T09:34:41.185Z,48.60
2019-03-11T09:37:59.508Z,48.70
2019-03-11T09:40:56.867Z,49.30
2019-03-11T09:45:12.365Z,49.50
2019-03-11T09:47:31.520Z,49.00
2019-03-11T09:50:32.439Z,49.30
2019-03-11T09:53:25.266Z,49.50
2019-03-11T09:56:43.515Z,48.20
2019-03-11T09:59:36.222Z,47.60
2019-03-11T10:02:29.882Z,46.80
2019-03-11T10:05:25.369Z,46.10
2019-03-11T10:08:19.426Z,45.60
2019-03-11T10:11:11.867Z,45.60
2019-03-11T10:14:06.090Z,45.10
2019-03-11T10:16:58.765Z,44.70
2019-03-11T10:19:53.068Z,44.30
2019-03-11T10:22:50.210Z,44.00
2019-03-11T10:25:46.753Z,43.70
2019-03-11T10:28:44.388Z,43.80
2019-03-11T10:31:50.877Z,44.30
2019-03-11T10:34:53.208Z,44.10
2019-03-11T10:37:55.755Z,43.90
2019-03-11T10:42:05.792Z,43.70
2019-03-11T10:44:05.187Z,43.60
2019-03-11T10:47:06.241Z,43.50
2019-03-11T10:50:04.587Z,43.30
2019-03-11T10:53:05.698Z,43.20
2019-03-11T10:56:04.135Z,42.90
2019-03-11T10:59:00.138Z,42.90
2019-03-11T11:01:57.844Z,42.90
2019-03-11T11:18:03.270Z,43.50
2019-03-11T11:21:00.122Z,43.70
2019-03-11T11:24:36.460Z,43.60
2019-03-11T11:27:23.414Z,43.50
2019-03-11T11:30:19.331Z,48.50
2019-03-11T11:33:16.133Z,47.60
2019-03-11T11:36:09.705Z,46.60
2019-03-11T11:39:06.087Z,45.90
2019-03-11T11:42:02.690Z,45.40
2019-03-11T11:44:59.368Z,44.80
2019-03-11T11:47:57.921Z,44.60
2019-03-11T11:51:16.398Z,44.30
2019-03-11T11:54:13.431Z,44.00
2019-03-11T11:57:08.599Z,43.80
2019-03-11T12:00:01.292Z,43.70
2019-03-11T12:02:54.848Z,43.40
2019-03-11T12:05:52.559Z,43.30
2019-03-11T12:08:46.230Z,43.30
2019-03-11T12:11:44.905Z,43.30
2019-03-11T12:14:36.853Z,43.20
2019-03-11T12:17:28.972Z,43.10
2019-03-11T12:20:23.998Z,43.70
2019-03-11T12:23:19.955Z,43.00
2019-03-11T12:26:13.287Z,42.90
2019-03-11T12:29:11.030Z,42.40
2019-03-11T12:32:03.014Z,42.00
2019-03-11T12:34:55.500Z,41.90
2019-03-11T12:37:47.737Z,42.00
2019-03-11T12:40:43.395Z,42.10
2019-03-11T12:43:37.367Z,42.20
2019-03-11T12:46:29.283Z,42.30
2019-03-11T12:49:22.866Z,42.40
2019-03-11T12:52:16.389Z,42.60
2019-03-11T12:55:11.042Z,42.70
2019-03-11T12:58:04.317Z,42.70
2019-03-11T13:00:58.772Z,43.00
2019-03-11T13:03:50.823Z,43.30
2019-03-11T13:06:42.945Z,43.40
2019-03-11T13:09:35.275Z,43.60
2019-03-11T13:12:27.594Z,43.80
2019-03-11T13:15:19.961Z,43.80
2019-03-11T13:18:28.914Z,44.00
2019-03-11T13:21:22.668Z,44.20
2019-03-11T13:24:14.866Z,44.40
2019-03-11T13:27:07.120Z,44.50
2019-03-11T13:30:01.719Z,44.70
2019-03-11T13:32:54.634Z,44.60
2019-03-11T13:35:47.058Z,44.90
2019-03-11T13:38:47.570Z,44.90
2019-03-11T13:41:34.263Z,45.30
2019-03-11T13:44:26.541Z,45.60
2019-03-11T13:47:20.655Z,45.50
2019-03-11T13:50:12.611Z,45.60
2019-03-11T13:53:05.007Z,45.80
2019-03-11T13:55:57.502Z,46.00
2019-03-11T13:58:50.566Z,46.30
2019-03-11T14:01:42.538Z,46.40
2019-03-11T14:04:35.551Z,46.30
2019-03-11T14:07:27.702Z,46.40
2019-03-11T14:10:24.859Z,46.40
2019-03-11T14:13:16.874Z,46.50
2019-03-11T14:16:09.130Z,46.30
2019-03-11T14:19:01.445Z,46.40
2019-03-11T14:21:55.395Z,46.10
2019-03-11T14:24:47.060Z,46.40
2019-03-11T14:27:39.326Z,46.10
2019-03-11T14:30:31.570Z,46.60
2019-03-11T14:33:23.874Z,46.70
2019-03-11T14:36:15.988Z,46.70
2019-03-11T14:39:08.363Z,46.70
2019-03-11T14:42:04.707Z,46.60
2019-03-11T14:44:58.368Z,46.60
2019-03-11T14:47:51.123Z,46.40
2019-03-11T14:50:43.410Z,47.30
2019-03-11T14:53:35.786Z,47.00
2019-03-11T14:56:27.915Z,46.80
2019-03-11T14:59:20.087Z,46.80
2019-03-11T15:02:12.416Z,46.60
2019-03-11T15:05:04.512Z,46.70
2019-03-11T15:07:58.525Z,46.80
2019-03-11T15:10:51.100Z,47.20
2019-03-11T15:13:43.482Z,47.20
2019-03-11T15:16:35.641Z,46.90
2019-03-11T15:19:29.667Z,47.00
2019-03-11T15:22:22.522Z,47.10
2019-03-11T15:25:15.604Z,47.00
2019-03-11T15:28:08.099Z,47.00
2019-03-11T15:31:10.100Z,47.00
2019-03-11T15:33:54.189Z,47.20
2019-03-11T15:36:46.358Z,47.20
2019-03-11T15:39:38.462Z,47.20
2019-03-11T15:42:30.577Z,47.20
2019-03-11T15:45:22.871Z,47.00
2019-03-11T15:48:16.257Z,47.30
2019-03-11T15:51:08.383Z,47.00
2019-03-11T15:54:00.516Z,47.00
2019-03-11T15:56:52.290Z,47.20
2019-03-11T15:59:44.460Z,47.00
2019-03-11T16:02:36.626Z,47.30
2019-03-11T16:05:29.221Z,47.30
2019-03-11T16:08:21.653Z,47.30
2019-03-11T16:11:13.870Z,47.30
2019-03-11T16:14:06.277Z,47.30
2019-03-11T16:16:58.642Z,47.20
2019-03-11T16:19:51.279Z,47.20
2019-03-11T16:22:43.449Z,47.30
2019-03-11T16:25:35.682Z,47.20
2019-03-11T16:28:28.263Z,47.40
2019-03-11T16:31:20.275Z,47.30
2019-03-11T16:34:15.136Z,47.50
2019-03-11T16:37:07.058Z,47.30
2019-03-11T16:39:59.628Z,47.50
2019-03-11T16:42:52.345Z,47.50
2019-03-11T16:45:44.219Z,47.50
2019-03-11T16:48:37.523Z,47.60
2019-03-11T16:51:29.866Z,47.40
2019-03-11T16:54:21.964Z,47.60
2019-03-11T16:57:14.549Z,47.70
2019-03-11T17:00:08.061Z,47.70
2019-03-11T17:03:00.266Z,47.80
2019-03-11T17:05:57.630Z,47.70
2019-03-11T17:08:50.608Z,48.10
2019-03-11T17:11:42.817Z,48.10
2019-03-11T17:14:34.989Z,49.00
2019-03-11T17:17:27.282Z,49.30
2019-03-11T17:20:19.092Z,49.50
2019-03-11T17:23:11.208Z,49.60
2019-03-11T17:26:03.330Z,49.70
2019-03-11T17:28:55.499Z,49.70
2019-03-11T17:31:47.699Z,49.80
2019-03-11T17:34:39.900Z,49.80
2019-03-11T17:37:31.949Z,49.80
2019-03-11T17:40:24.264Z,49.80
2019-03-11T17:43:17.162Z,49.90
2019-03-11T17:46:08.996Z,49.90
2019-03-11T17:49:01.604Z,49.90
2019-03-11T17:51:54.913Z,50.00
2019-03-11T17:54:47.564Z,50.00
2019-03-11T17:57:40.199Z,50.00
2019-03-11T18:00:33.560Z,50.10
2019-03-11T18:03:25.945Z,50.10
2019-03-11T18:06:18.413Z,50.10
2019-03-11T18:09:11.739Z,50.10
2019-03-11T18:12:03.950Z,50.20
2019-03-11T18:14:56.168Z,50.20
2019-03-11T18:17:48.214Z,50.20
2019-03-11T18:20:40.388Z,50.30
2019-03-11T18:23:32.727Z,50.30
2019-03-11T18:26:25.114Z,50.40
2019-03-11T18:29:17.406Z,50.40
2019-03-11T18:32:09.587Z,50.40
2019-03-11T18:35:01.751Z,50.40
2019-03-11T18:38:03.437Z,50.40
2019-03-11T18:40:47.067Z,50.60
2019-03-11T18:43:42.985Z,50.50
2019-03-11T18:46:32.294Z,50.50
2019-03-11T18:49:24.560Z,50.50
2019-03-11T18:52:16.694Z,50.50
2019-03-11T18:55:08.651Z,50.50
2019-03-11T18:58:00.904Z,50.50
2019-03-11T19:00:53.170Z,50.60
2019-03-11T19:03:45.814Z,50.60
2019-03-11T19:06:37.977Z,50.60
2019-03-11T19:09:30.636Z,50.60
2019-03-11T19:12:22.914Z,50.60
2019-03-11T19:15:15.721Z,50.60
2019-03-11T19:18:07.605Z,50.70
2019-03-11T19:21:00.034Z,50.70
2019-03-11T19:23:52.364Z,50.70
2019-03-11T19:26:44.639Z,50.80
2019-03-11T19:29:37.052Z,50.80
2019-03-11T19:32:29.201Z,50.70
2019-03-11T19:35:21.904Z,50.80
2019-03-11T19:38:14.386Z,50.70
2019-03-11T19:41:06.547Z,50.70
2019-03-11T19:43:58.849Z,50.80
2019-03-11T19:46:51.141Z,50.80
2019-03-11T19:49:43.459Z,50.90
2019-03-11T19:52:35.589Z,50.90
2019-03-11T19:55:28.931Z,50.90
2019-03-11T19:58:21.094Z,51.00
2019-03-11T20:01:13.104Z,51.00
2019-03-11T20:04:05.291Z,50.90
2019-03-11T20:06:58.606Z,51.00
2019-03-11T20:09:50.898Z,51.00
2019-03-11T20:12:42.913Z,51.00
2019-03-11T20:15:35.121Z,51.00
2019-03-11T20:18:27.345Z,51.00
2019-03-11T20:21:19.487Z,51.00
2019-03-11T20:24:11.454Z,51.10
2019-03-11T20:27:03.483Z,51.10
2019-03-11T20:29:55.659Z,51.20
2019-03-11T20:32:47.786Z,51.10
2019-03-11T20:35:40.013Z,51.10
2019-03-11T20:38:32.217Z,51.10
2019-03-11T20:41:24.561Z,51.10
2019-03-11T20:44:16.708Z,51.10
2019-03-11T20:47:08.886Z,51.20
2019-03-11T20:50:02.159Z,51.20
2019-03-11T20:52:55.229Z,51.20
2019-03-11T20:55:47.396Z,51.30
2019-03-11T20:58:39.724Z,51.30
2019-03-11T21:01:32.362Z,51.30
2019-03-11T21:04:24.483Z,51.40
2019-03-11T21:07:16.601Z,51.40
2019-03-11T21:10:09.431Z,51.40
2019-03-11T21:13:01.245Z,51.50
2019-03-11T21:15:53.608Z,51.60
2019-03-11T21:18:45.712Z,51.60
2019-03-11T21:21:38.173Z,51.70
2019-03-11T21:24:30.368Z,51.70
2019-03-11T21:27:22.726Z,51.70
2019-03-11T21:30:16.354Z,51.70
2019-03-11T21:33:08.573Z,51.70
2019-03-11T21:36:00.808Z,51.80
2019-03-11T21:38:52.944Z,51.80
2019-03-11T21:41:45.128Z,51.70
2019-03-11T21:44:37.316Z,51.80
2019-03-11T21:47:29.500Z,51.80
2019-03-11T21:50:22.286Z,51.80
2019-03-11T21:53:14.313Z,51.80
2019-03-11T21:56:06.462Z,51.80
2019-03-11T21:58:58.781Z,51.80
2019-03-11T22:01:51.519Z,51.80
2019-03-11T22:04:43.644Z,51.90
2019-03-11T22:07:36.018Z,51.80
2019-03-11T22:10:28.258Z,51.80
2019-03-11T22:13:20.470Z,51.90
2019-03-11T22:16:12.548Z,51.80
2019-03-11T22:19:04.599Z,51.90
2019-03-11T22:21:56.631Z,51.90
2019-03-11T22:24:48.728Z,51.90
2019-03-11T22:27:40.870Z,51.90
2019-03-11T22:30:32.967Z,51.90
2019-03-11T22:33:25.208Z,51.90
2019-03-11T22:36:17.200Z,51.90
2019-03-11T22:39:09.426Z,51.90
2019-03-11T22:42:01.613Z,52.00
2019-03-11T22:44:54.808Z,52.00
2019-03-11T22:47:47.653Z,52.00
2019-03-11T22:50:39.966Z,52.00
2019-03-11T22:53:32.212Z,52.00
2019-03-11T22:56:25.489Z,51.90
2019-03-11T22:59:17.508Z,52.00
2019-03-11T23:02:11.886Z,52.00
2019-03-11T23:05:04.200Z,52.00
2019-03-11T23:07:56.506Z,52.10
2019-03-11T23:10:48.772Z,52.00
2019-03-11T23:13:41.067Z,52.00
2019-03-11T23:16:33.189Z,52.10
2019-03-11T23:19:25.042Z,52.00
2019-03-11T23:22:17.163Z,52.00
2019-03-11T23:25:09.304Z,52.00
2019-03-11T23:28:01.517Z,52.10
2019-03-11T23:30:53.376Z,52.00
2019-03-11T23:33:45.300Z,52.00
2019-03-11T23:36:37.530Z,52.00
2019-03-11T23:39:29.346Z,51.90
2019-03-11T23:42:21.484Z,51.90
2019-03-11T23:45:13.678Z,52.00
2019-03-11T23:48:05.526Z,51.90
2019-03-11T23:50:57.436Z,51.90
2019-03-11T23:53:49.427Z,51.90
2019-03-11T23:56:41.615Z,51.90
2019-03-11T23:59:33.592Z,51.90
